Time;durP1;ratioP1;P1;durP2;ratioP2;P2;SDS_P1;SDS_P2;PMS_P1;PMS_P2;Temp;Humidity;BMP_temperature;BMP_pressure;BME280_temperature;BME280_humidity;BME280_pressure;Samples;Min_cycle;Max_cycle;Signal;HPM_P1;HPM_P2
2022/12/02 00:00:04;;;;;;;11.13;7.28;;;6.30;99.90;6.70;99831.00;;;;342728;28;90356;-89
2022/12/02 00:00:20;;;;;;;11.80;7.18;;;6.30;99.90;6.60;99836.00;;;;341402;28;83887;-91
2022/12/02 00:00:32;;;;;;;12.95;7.20;;;6.30;99.90;6.50;99834.00;;;;341434;28;92015;-91
2022/12/02 00:00:47;;;;;;;13.60;7.55;;;6.30;99.90;6.40;99827.00;;;;340435;28;84063;-91
2022/12/02 00:00:58;;;;;;;13.32;8.48;;;6.30;99.90;6.60;99838.00;;;;342764;28;90558;-91
2022/12/02 00:01:11;;;;;;;11.75;8.15;;;6.20;99.90;6.70;99830.00;;;;341725;28;83488;-92
2022/12/02 00:01:24;;;;;;;11.73;7.80;;;6.30;99.90;6.70;99830.00;;;;339982;28;91687;-91
2022/12/02 00:01:36;;;;;;;13.10;7.95;;;6.30;99.90;6.70;99831.00;;;;341723;28;83436;-91
2022/12/02 00:01:48;;;;;;;11.90;7.47;;;6.30;99.90;6.70;99832.00;;;;340104;28;90669;-91
2022/12/02 00:02:07;;;;;;;11.02;7.40;;;6.30;99.90;6.70;99828.00;;;;340362;28;84583;-91
2022/12/02 00:02:34;;;;;;;11.63;8.15;;;6.30;99.90;6.60;99835.00;;;;341270;28;91773;-91
2022/12/02 00:02:46;;;;;;;13.80;8.45;;;6.30;99.90;6.70;99827.00;;;;339014;28;83407;-91
2022/12/02 00:02:58;;;;;;;13.93;8.82;;;6.30;99.90;6.70;99832.00;;;;338533;28;90747;-90
2022/12/02 00:03:12;;;;;;;14.13;8.75;;;6.30;99.90;6.70;99821.00;;;;340344;28;84732;-91
2022/12/02 00:03:24;;;;;;;12.82;8.25;;;6.30;99.90;6.70;99829.00;;;;339972;28;91362;-91
2022/12/02 00:03:36;;;;;;;12.05;7.97;;;6.30;99.90;6.60;99829.00;;;;339036;28;84577;-91
2022/12/02 00:03:48;;;;;;;13.07;8.23;;;6.30;99.90;6.40;99823.00;;;;341364;28;90938;-90
2022/12/02 00:04:01;;;;;;;14.02;8.30;;;6.30;99.90;6.50;99831.00;;;;341720;28;84890;-91
2022/12/02 00:04:25;;;;;;;12.13;8.23;;;6.30;99.90;6.30;99836.00;;;;342670;28;91912;-91
2022/12/02 00:04:37;;;;;;;12.25;8.38;;;6.30;99.90;6.20;99828.00;;;;342800;28;83487;-91
2022/12/02 00:04:57;;;;;;;12.07;7.82;;;6.20;99.90;6.20;99827.00;;;;341229;28;90689;-91
2022/12/02 00:05:14;;;;;;;10.90;7.20;;;6.20;99.90;6.40;99828.00;;;;340367;28;84584;-91
2022/12/02 00:05:32;;;;;;;12.93;8.05;;;6.10;99.90;6.40;99819.00;;;;341304;28;91773;-91
2022/12/02 00:05:46;;;;;;;14.40;8.57;;;6.10;99.90;6.30;99826.00;;;;341867;28;83320;-90
2022/12/02 00:05:57;;;;;;;15.35;8.57;;;6.10;99.90;6.20;99825.00;;;;342704;28;91216;-91
2022/12/02 00:06:30;;;;;;;14.70;8.80;;;6.10;99.90;6.30;99835.00;;;;341735;28;83451;-91
2022/12/02 00:06:42;;;;;;;14.70;8.70;;;6.00;99.90;6.30;99813.00;;;;342732;28;92249;-91
2022/12/02 00:06:56;;;;;;;13.27;8.38;;;6.00;99.90;6.30;99824.00;;;;342987;28;84605;-90
2022/12/02 00:07:12;;;;;;;12.43;8.20;;;6.00;99.90;6.40;99829.00;;;;341400;28;91935;-91
2022/12/02 00:07:24;;;;;;;12.63;8.30;;;6.00;99.90;6.40;99819.00;;;;338915;28;85176;-90
2022/12/02 00:07:36;;;;;;;12.57;7.75;;;6.00;99.90;6.40;99823.00;;;;341311;28;92865;-91
2022/12/02 00:07:48;;;;;;;12.60;7.65;;;6.10;99.90;6.30;99825.00;;;;340381;28;84698;-91
2022/12/02 00:08:20;;;;;;;12.43;7.53;;;6.00;99.90;6.40;99829.00;;;;340056;28;91769;-90
2022/12/02 00:08:32;;;;;;;10.57;7.43;;;6.00;99.90;6.40;99817.00;;;;340453;28;83626;-92
2022/12/02 00:08:44;;;;;;;11.70;8.43;;;6.10;99.90;6.40;99820.00;;;;338574;28;91889;-91
2022/12/02 00:09:05;;;;;;;14.13;8.93;;;6.10;99.90;6.40;99822.00;;;;343046;28;83495;-91
2022/12/02 00:09:34;;;;;;;14.54;8.90;;;6.10;99.90;6.50;99826.00;;;;339657;28;91803;-91
2022/12/02 00:09:46;;;;;;;12.65;7.40;;;6.10;99.90;6.40;99811.00;;;;341782;28;83688;-90
2022/12/02 00:09:57;;;;;;;13.68;8.23;;;6.10;99.90;6.30;99820.00;;;;342621;28;91313;-91
2022/12/02 00:10:26;;;;;;;12.90;7.80;;;6.10;99.90;6.40;99824.00;;;;343089;28;84439;-91
2022/12/02 00:10:38;;;;;;;14.02;7.68;;;6.10;99.90;6.30;99825.00;;;;342559;28;92847;-90
2022/12/02 00:10:51;;;;;;;15.88;9.00;;;6.10;99.90;6.30;99824.00;;;;340057;28;83370;-91
2022/12/02 00:11:21;;;;;;;16.05;9.35;;;6.10;99.90;6.40;99821.00;;;;342754;28;91048;-91
2022/12/02 00:11:33;;;;;;;12.27;7.72;;;6.10;99.90;6.40;99821.00;;;;341658;28;84941;-92
2022/12/02 00:11:45;;;;;;;11.75;7.68;;;6.10;99.90;6.50;99810.00;;;;341531;28;89171;-91
2022/12/02 00:12:15;;;;;;;12.40;7.85;;;6.10;99.90;6.40;99818.00;;;;341759;28;83347;-91
2022/12/02 00:12:29;;;;;;;13.50;8.35;;;6.10;99.90;6.40;99819.00;;;;339939;28;92156;-91
2022/12/02 00:12:41;;;;;;;12.23;8.40;;;6.10;99.90;6.50;99825.00;;;;343110;28;84614;-92
2022/12/02 00:12:53;;;;;;;10.93;7.82;;;6.10;99.90;6.60;99819.00;;;;341234;28;92016;-91
2022/12/02 00:13:25;;;;;;;11.18;8.13;;;6.10;99.90;6.50;99810.00;;;;341550;28;83400;-91
2022/12/02 00:13:42;;;;;;;13.07;9.15;;;6.10;99.90;6.50;99829.00;;;;341340;28;90059;-91
2022/12/02 00:13:56;;;;;;;13.23;9.07;;;6.10;99.90;6.60;99813.00;;;;344507;28;82399;-91
2022/12/02 00:14:22;;;;;;;13.77;8.98;;;6.10;99.90;6.60;99804.00;;;;339987;28;91778;-91
2022/12/02 00:14:34;;;;;;;11.80;7.93;;;6.10;99.90;6.60;99817.00;;;;341726;28;83825;-91
2022/12/02 00:14:49;;;;;;;12.93;8.82;;;6.20;99.90;6.50;99811.00;;;;344057;28;91791;-91
2022/12/02 00:15:31;;;;;;;13.50;9.15;;;6.20;99.90;6.60;99820.00;;;;341714;28;83461;-91
2022/12/02 00:15:44;;;;;;;11.82;8.35;;;6.20;99.90;6.60;99822.00;;;;338684;28;92768;-91
2022/12/02 00:16:00;;;;;;;11.20;7.90;;;6.20;99.90;6.60;99817.00;;;;342786;28;84016;-91
2022/12/02 00:16:20;;;;;;;11.13;7.07;;;6.20;99.90;6.30;99810.00;;;;341255;28;91560;-91
2022/12/02 00:16:32;;;;;;;12.82;7.40;;;6.20;99.90;6.40;99818.00;;;;340271;28;84799;-91
2022/12/02 00:16:44;;;;;;;12.35;7.53;;;6.20;99.90;6.30;99808.00;;;;341368;28;92969;-91
2022/12/02 00:16:56;;;;;;;12.57;7.53;;;6.20;99.90;6.30;99812.00;;;;340242;28;84357;-91
2022/12/02 00:17:08;;;;;;;12.32;7.50;;;6.20;99.90;6.40;99806.00;;;;341361;28;92170;-91
2022/12/02 00:17:20;;;;;;;11.80;7.47;;;6.10;99.90;6.50;99820.00;;;;341664;28;83719;-91
2022/12/02 00:17:32;;;;;;;13.35;8.10;;;6.20;99.90;6.40;99812.00;;;;341265;28;91765;-91
2022/12/02 00:17:44;;;;;;;14.02;8.57;;;6.20;99.90;6.40;99818.00;;;;341758;28;84365;-91
2022/12/02 00:17:56;;;;;;;13.70;8.68;;;6.20;99.90;6.30;99809.00;;;;342708;28;91769;-91
2022/12/02 00:18:12;;;;;;;12.82;8.05;;;6.20;99.90;6.40;99803.00;;;;343292;28;84461;-91
2022/12/02 00:18:24;;;;;;;10.02;6.95;;;6.20;99.90;6.50;99810.00;;;;340004;28;90891;-91
2022/12/02 00:18:36;;;;;;;11.77;7.47;;;6.20;99.90;6.50;99823.00;;;;344452;28;83559;-91
2022/12/02 00:18:49;;;;;;;13.55;8.57;;;6.20;99.90;6.50;99813.00;;;;339896;28;92880;-91
2022/12/02 00:19:01;;;;;;;14.00;8.70;;;6.20;99.90;6.50;99811.00;;;;343104;28;83459;-91
2022/12/02 00:19:13;;;;;;;13.75;8.30;;;6.20;99.90;6.40;99812.00;;;;341300;28;92015;-91
2022/12/02 00:19:25;;;;;;;13.93;8.25;;;6.20;99.90;6.40;99808.00;;;;338759;28;83792;-91
2022/12/02 00:19:36;;;;;;;13.98;8.40;;;6.20;99.90;6.40;99805.00;;;;341371;28;90794;-90
2022/12/02 00:19:48;;;;;;;13.82;8.43;;;6.20;99.90;6.30;99810.00;;;;340389;28;84380;-91
2022/12/02 00:20:00;;;;;;;13.20;8.25;;;6.20;99.90;6.30;99809.00;;;;340047;28;91866;-91
2022/12/02 00:20:12;;;;;;;13.32;8.25;;;6.20;99.90;6.40;99820.00;;;;340300;28;85009;-91
2022/12/02 00:20:24;;;;;;;11.95;8.13;;;6.10;99.90;6.40;99809.00;;;;342721;28;90386;-92
2022/12/02 00:20:36;;;;;;;11.85;7.80;;;6.20;99.90;6.50;99820.00;;;;342989;28;82492;-91
2022/12/02 00:20:48;;;;;;;12.52;7.90;;;6.20;99.90;6.40;99817.00;;;;342560;28;92805;-91
2022/12/02 00:21:00;;;;;;;12.00;7.43;;;6.20;99.90;6.50;99803.00;;;;344484;28;84581;-91
2022/12/02 00:21:12;;;;;;;11.90;7.50;;;6.20;99.90;6.40;99817.00;;;;339891;28;89777;-92
2022/12/02 00:21:23;;;;;;;11.75;7.47;;;6.20;99.90;6.50;99820.00;;;;342951;28;83297;-91
2022/12/02 00:21:35;;;;;;;12.43;7.85;;;6.20;99.90;6.50;99804.00;;;;341332;28;91674;-91
2022/12/02 00:21:48;;;;;;;12.60;7.55;;;6.20;99.90;6.50;99810.00;;;;344299;28;84715;-91
2022/12/02 00:22:00;;;;;;;12.15;7.57;;;6.20;99.90;6.40;99819.00;;;;342567;28;91532;-92
2022/12/02 00:22:12;;;;;;;12.68;8.05;;;6.20;99.90;6.30;99811.00;;;;340216;28;84779;-91
2022/12/02 00:22:24;;;;;;;11.68;7.90;;;6.20;99.90;6.40;99805.00;;;;342506;28;90289;-91
2022/12/02 00:22:35;;;;;;;11.98;8.25;;;6.20;99.90;6.50;99807.00;;;;341708;28;84253;-91
2022/12/02 00:22:47;;;;;;;12.00;8.25;;;6.20;99.90;6.50;99813.00;;;;342671;28;92833;-91
2022/12/02 00:22:59;;;;;;;12.77;8.35;;;6.20;99.90;6.40;99806.00;;;;341673;28;83652;-91
2022/12/02 00:23:11;;;;;;;14.00;8.68;;;6.10;99.90;6.30;99819.00;;;;342646;28;91901;-91
2022/12/02 00:23:23;;;;;;;15.25;9.85;;;6.10;99.90;6.30;99802.00;;;;343044;28;83815;-91
2022/12/02 00:23:35;;;;;;;14.18;9.13;;;6.10;99.90;6.30;99813.00;;;;341103;28;91746;-90
2022/12/02 00:23:47;;;;;;;13.60;8.48;;;6.10;99.90;6.40;99810.00;;;;343006;28;85199;-91
2022/12/02 00:23:59;;;;;;;13.25;8.02;;;6.10;99.90;6.50;99812.00;;;;339947;28;91719;-91
2022/12/02 00:24:11;;;;;;;13.45;7.93;;;6.10;99.90;6.40;99812.00;;;;341408;28;83583;-91
2022/12/02 00:24:22;;;;;;;12.43;7.70;;;6.10;99.90;6.40;99807.00;;;;341404;28;90936;-91
2022/12/02 00:24:34;;;;;;;11.98;7.50;;;6.10;99.90;6.40;99813.00;;;;340947;28;84240;-91
2022/12/02 00:24:46;;;;;;;13.32;7.72;;;6.10;99.90;6.30;99809.00;;;;344013;28;93430;-91
2022/12/02 00:24:58;;;;;;;14.48;8.27;;;6.10;99.90;6.40;99812.00;;;;342970;28;83257;-91
2022/12/02 00:25:10;;;;;;;12.95;8.43;;;6.10;99.90;6.40;99812.00;;;;343967;28;91638;-91
2022/12/02 00:25:22;;;;;;;13.85;8.18;;;6.10;99.90;6.40;99806.00;;;;340169;28;84638;-92
2022/12/02 00:25:34;;;;;;;13.00;8.07;;;6.20;99.90;6.40;99808.00;;;;339851;28;91938;-91
2022/12/02 00:25:51;;;;;;;12.27;7.97;;;6.20;99.90;6.30;99807.00;;;;343170;28;83521;-91
2022/12/02 00:26:03;;;;;;;12.77;8.40;;;6.10;99.90;6.30;99820.00;;;;339914;28;92006;-91
2022/12/02 00:26:15;;;;;;;14.23;8.50;;;6.10;99.90;6.30;99799.00;;;;340283;28;83792;-90
2022/12/02 00:26:27;;;;;;;14.13;8.52;;;6.10;99.90;6.30;99811.00;;;;338659;28;91986;-91
2022/12/02 00:26:39;;;;;;;14.98;8.90;;;6.10;99.90;6.10;99808.00;;;;341730;28;83345;-91
2022/12/02 00:26:50;;;;;;;13.45;8.38;;;6.10;99.90;6.10;99812.00;;;;341193;28;91174;-91
2022/12/02 00:27:02;;;;;;;13.27;8.15;;;6.00;99.90;6.10;99812.00;;;;340319;28;83403;-91
2022/12/02 00:27:14;;;;;;;13.88;8.15;;;6.00;99.90;6.20;99817.00;;;;340068;28;91742;-91
2022/12/02 00:27:26;;;;;;;13.63;8.75;;;6.00;99.90;6.30;99803.00;;;;340276;28;84650;-91
2022/12/02 00:27:38;;;;;;;12.65;8.60;;;6.00;99.90;6.30;99801.00;;;;341354;28;92390;-91
2022/12/02 00:27:49;;;;;;;14.30;8.88;;;6.00;99.90;6.30;99802.00;;;;341761;28;84471;-91
2022/12/02 00:28:01;;;;;;;14.13;8.18;;;6.00;99.90;6.40;99806.00;;;;339968;28;91581;-91
2022/12/02 00:28:14;;;;;;;12.55;7.90;;;6.00;99.90;6.40;99802.00;;;;342998;28;84053;-91
2022/12/02 00:28:28;;;;;;;12.07;7.78;;;6.00;99.90;6.40;99804.00;;;;342845;28;90953;-91
2022/12/02 00:28:39;;;;;;;14.77;8.20;;;6.00;99.90;6.40;99809.00;;;;345723;28;83361;-91
2022/12/02 00:28:51;;;;;;;16.58;9.10;;;6.00;99.90;6.50;99806.00;;;;343933;28;91702;-91
2022/12/02 00:29:03;;;;;;;15.50;8.73;;;6.00;99.90;6.40;99810.00;;;;342866;28;83580;-91
2022/12/02 00:29:15;;;;;;;13.45;8.32;;;6.00;99.90;6.40;99801.00;;;;341256;28;91503;-91
2022/12/02 00:29:27;;;;;;;13.52;8.27;;;6.00;99.90;6.30;99806.00;;;;340227;28;85274;-91
2022/12/02 00:29:38;;;;;;;13.15;8.30;;;6.10;99.90;6.40;99810.00;;;;339987;28;91301;-91
2022/12/02 00:29:50;;;;;;;15.20;8.43;;;6.10;99.90;6.20;99807.00;;;;341725;28;84788;-91
2022/12/02 00:30:02;;;;;;;14.90;7.93;;;6.00;99.90;6.20;99812.00;;;;342745;28;90853;-90
2022/12/02 00:30:16;;;;;;;14.23;7.88;;;6.00;99.90;6.10;99812.00;;;;340329;28;84485;-91
2022/12/02 00:30:28;;;;;;;11.35;7.30;;;6.00;99.90;6.20;99813.00;;;;341462;28;90219;-91
2022/12/02 00:30:40;;;;;;;11.50;7.55;;;6.00;99.90;6.20;99809.00;;;;343047;28;84145;-91
2022/12/02 00:30:52;;;;;;;12.25;8.23;;;6.00;99.90;6.30;99817.00;;;;341144;28;92899;-92
2022/12/02 00:31:04;;;;;;;13.70;8.73;;;6.00;99.90;6.30;99809.00;;;;340396;28;83315;-91
2022/12/02 00:31:16;;;;;;;12.80;8.38;;;6.00;99.90;6.30;99803.00;;;;339758;28;91808;-91
2022/12/02 00:31:27;;;;;;;13.68;8.32;;;5.90;99.90;6.30;99811.00;;;;341696;28;84196;-91
2022/12/02 00:31:39;;;;;;;14.18;8.32;;;6.00;99.90;6.40;99803.00;;;;342620;28;91717;-91
2022/12/02 00:31:51;;;;;;;13.80;8.35;;;6.00;99.90;6.50;99804.00;;;;343147;28;83498;-90
2022/12/02 00:32:04;;;;;;;12.95;7.88;;;6.00;99.90;6.40;99802.00;;;;342601;28;91312;-91
2022/12/02 00:32:16;;;;;;;12.85;7.82;;;6.00;99.90;6.50;99801.00;;;;344376;28;83474;-91
2022/12/02 00:32:28;;;;;;;12.25;8.23;;;6.00;99.90;6.60;99798.00;;;;342835;28;90769;-91
2022/12/02 00:32:39;;;;;;;13.00;8.48;;;6.10;99.90;6.50;99798.00;;;;344458;28;83564;-91
2022/12/02 00:32:51;;;;;;;13.50;8.57;;;6.10;99.90;6.40;99805.00;;;;339817;28;91756;-91
2022/12/02 00:33:03;;;;;;;13.98;8.93;;;6.10;99.90;6.40;99794.00;;;;341748;28;85188;-91
2022/12/02 00:33:17;;;;;;;15.80;9.73;;;6.10;99.90;6.50;99812.00;;;;342663;28;91942;-91
2022/12/02 00:33:29;;;;;;;15.50;9.00;;;6.10;99.90;6.50;99800.00;;;;343006;28;85458;-91
2022/12/02 00:33:40;;;;;;;12.93;8.52;;;6.10;99.90;6.50;99807.00;;;;341337;28;90636;-91
2022/12/02 00:33:53;;;;;;;13.05;8.90;;;6.10;99.90;6.50;99803.00;;;;340380;28;84389;-90
2022/12/02 00:34:05;;;;;;;13.07;8.80;;;6.10;99.90;6.40;99800.00;;;;341327;28;91593;-91
2022/12/02 00:34:17;;;;;;;13.82;8.07;;;6.10;99.90;6.50;99799.00;;;;343039;28;84871;-91
2022/12/02 00:34:29;;;;;;;14.30;7.45;;;6.10;99.90;6.60;99806.00;;;;341063;28;91904;-91
2022/12/02 00:34:40;;;;;;;15.50;8.15;;;6.10;99.90;6.50;99804.00;;;;341689;28;83830;-91
2022/12/02 00:34:52;;;;;;;14.75;8.57;;;6.10;99.90;6.50;99807.00;;;;342656;28;89144;-91
2022/12/02 00:35:05;;;;;;;12.25;8.18;;;6.10;99.90;6.50;99805.00;;;;342973;28;83393;-90
2022/12/02 00:35:17;;;;;;;12.73;8.38;;;6.10;99.90;6.60;99810.00;;;;341135;28;90920;-91
2022/12/02 00:35:29;;;;;;;14.05;8.88;;;6.20;99.90;6.60;99804.00;;;;341533;28;83476;-91
2022/12/02 00:35:40;;;;;;;13.82;8.57;;;6.20;99.90;6.60;99806.00;;;;341313;28;87596;-91
2022/12/02 00:35:52;;;;;;;13.98;8.45;;;6.20;99.90;6.60;99802.00;;;;344084;28;82752;-91
2022/12/02 00:36:04;;;;;;;12.68;8.38;;;6.20;99.90;6.60;99805.00;;;;341401;28;89004;-91
2022/12/02 00:36:16;;;;;;;13.70;8.48;;;6.20;99.90;6.50;99813.00;;;;340200;28;84672;-91
2022/12/02 00:36:28;;;;;;;13.77;8.30;;;6.20;99.90;6.50;99792.00;;;;340084;28;91645;-92
2022/12/02 00:36:40;;;;;;;12.70;7.72;;;6.20;99.90;6.40;99798.00;;;;340374;28;83957;-89
2022/12/02 00:36:52;;;;;;;11.27;7.50;;;6.20;99.90;6.50;99811.00;;;;342360;28;92513;-91
2022/12/02 00:37:04;;;;;;;10.85;7.55;;;6.20;99.90;6.40;99801.00;;;;340338;28;84585;-91
2022/12/02 00:37:15;;;;;;;11.02;7.68;;;6.20;99.90;6.50;99805.00;;;;341309;28;90681;-91
2022/12/02 00:37:27;;;;;;;11.90;7.80;;;6.20;99.90;6.50;99807.00;;;;344292;28;84688;-91
2022/12/02 00:37:39;;;;;;;12.80;8.25;;;6.20;99.90;6.50;99810.00;;;;340074;28;92190;-91
2022/12/02 00:37:51;;;;;;;13.25;8.38;;;6.20;99.90;6.50;99804.00;;;;342928;28;85650;-91
2022/12/02 00:38:04;;;;;;;13.43;8.48;;;6.20;99.90;6.30;99801.00;;;;341247;28;91198;-91
2022/12/02 00:38:16;;;;;;;13.52;8.68;;;6.20;99.90;6.30;99797.00;;;;344397;28;84415;-91
2022/12/02 00:38:28;;;;;;;13.55;9.27;;;6.20;99.90;6.40;99803.00;;;;341412;28;91078;-91
2022/12/02 00:38:40;;;;;;;13.48;9.35;;;6.10;99.90;6.30;99813.00;;;;343030;28;83621;-91
2022/12/02 00:38:53;;;;;;;13.38;8.77;;;6.10;99.90;6.40;99801.00;;;;342554;28;92461;-92
2022/12/02 00:39:05;;;;;;;11.68;7.63;;;6.10;99.90;6.50;99808.00;;;;341485;28;84905;-91
2022/12/02 00:39:17;;;;;;;11.73;7.60;;;6.10;99.90;6.50;99810.00;;;;339907;28;89641;-91
2022/12/02 00:39:28;;;;;;;13.88;8.40;;;6.10;99.90;6.40;99803.00;;;;343103;28;83499;-90
2022/12/02 00:39:40;;;;;;;14.25;8.50;;;6.10;99.90;6.50;99790.00;;;;340002;28;91548;-91
2022/12/02 00:39:52;;;;;;;14.57;9.23;;;6.10;99.90;6.50;99800.00;;;;339057;28;84491;-90
2022/12/02 00:40:07;;;;;;;14.93;9.15;;;6.10;99.90;6.50;99800.00;;;;342673;28;91539;-91
2022/12/02 00:40:18;;;;;;;16.75;9.18;;;6.10;99.90;6.50;99800.00;;;;340302;28;83533;-91
2022/12/02 00:40:30;;;;;;;16.55;9.10;;;6.10;99.90;6.50;99794.00;;;;338667;28;91704;-91
2022/12/02 00:40:42;;;;;;;16.58;9.30;;;6.10;99.90;6.50;99800.00;;;;341747;28;84698;-91
2022/12/02 00:40:54;;;;;;;13.90;8.65;;;6.10;99.90;6.50;99804.00;;;;342626;28;92962;-91
2022/12/02 00:41:06;;;;;;;12.93;8.23;;;6.20;99.90;6.40;99787.00;;;;343099;28;84694;-91
2022/12/02 00:41:18;;;;;;;14.00;8.13;;;6.20;99.90;6.50;99798.00;;;;341375;28;90791;-91
2022/12/02 00:41:31;;;;;;;13.07;8.13;;;6.20;99.90;6.50;99799.00;;;;343824;28;83697;-91
2022/12/02 00:41:43;;;;;;;11.90;8.07;;;6.20;99.90;6.50;99790.00;;;;338726;28;91919;-91
2022/12/02 00:41:54;;;;;;;12.52;8.23;;;6.20;99.90;6.40;99795.00;;;;341673;28;84640;-91
2022/12/02 00:42:06;;;;;;;13.43;8.73;;;6.20;99.90;6.50;99790.00;;;;341352;28;91108;-91
2022/12/02 00:42:18;;;;;;;14.45;9.30;;;6.20;99.90;6.50;99792.00;;;;342999;28;84120;-91
2022/12/02 00:42:29;;;;;;;15.20;9.75;;;6.20;99.90;6.50;99793.00;;;;342711;28;91778;-91
2022/12/02 00:42:41;;;;;;;14.43;9.43;;;6.20;99.90;6.60;99796.00;;;;344482;28;84524;-91
2022/12/02 00:46:30;;;;;;;12.98;8.63;;;6.20;99.90;6.50;99799.00;;;;343911;28;92718;-91
2022/12/02 00:46:36;;;;;;;13.68;8.90;;;6.20;99.90;6.60;99800.00;;;;342791;28;83690;-91
2022/12/02 00:46:48;;;;;;;12.93;8.63;;;6.20;99.90;6.60;99802.00;;;;339943;28;91844;-91
2022/12/02 00:46:59;;;;;;;12.48;8.20;;;6.20;99.90;6.60;99794.00;;;;344165;28;84658;-91
2022/12/02 00:47:11;;;;;;;12.95;7.95;;;6.20;99.90;6.50;99801.00;;;;340025;28;90511;-91
2022/12/02 00:47:23;;;;;;;13.40;8.65;;;6.20;99.90;6.60;99792.00;;;;341594;28;85016;-91
2022/12/02 00:47:35;;;;;;;13.25;8.63;;;6.20;99.90;6.60;99788.00;;;;340067;28;88604;-91
2022/12/02 00:47:48;;;;;;;12.65;8.63;;;6.20;99.90;6.60;99796.00;;;;341340;28;84548;-91
2022/12/02 00:48:00;;;;;;;12.15;7.88;;;6.20;99.90;6.60;99798.00;;;;341136;28;90894;-91
2022/12/02 00:48:14;;;;;;;11.48;8.23;;;6.20;99.90;6.60;99793.00;;;;341682;28;84638;-91
2022/12/02 00:48:26;;;;;;;11.50;8.05;;;6.20;99.90;6.60;99785.00;;;;339984;28;92243;-91
2022/12/02 00:48:38;;;;;;;14.70;8.95;;;6.30;99.90;6.60;99790.00;;;;343073;28;83453;-90
2022/12/02 00:48:50;;;;;;;14.27;8.60;;;6.20;99.90;6.60;99792.00;;;;342605;28;90886;-91
2022/12/02 00:49:09;;;;;;;14.40;9.02;;;6.30;99.90;6.60;99788.00;;;;344403;28;83794;-91
2022/12/02 00:49:21;;;;;;;16.30;9.80;;;6.20;99.90;6.60;99786.00;;;;345361;28;91949;-91
2022/12/02 00:49:33;;;;;;;17.05;8.93;;;6.30;99.90;6.60;99794.00;;;;344429;28;83573;-91
2022/12/02 00:49:45;;;;;;;16.27;8.73;;;6.30;99.90;6.60;99795.00;;;;340068;28;91101;-91
2022/12/02 00:49:56;;;;;;;15.68;8.38;;;6.30;99.90;6.60;99788.00;;;;342962;28;83442;-91
2022/12/02 00:50:10;;;;;;;14.90;8.15;;;6.30;99.90;6.60;99798.00;;;;339718;28;91220;-91
2022/12/02 00:50:22;;;;;;;13.30;8.38;;;6.30;99.90;6.50;99781.00;;;;341566;28;85069;-91
2022/12/02 00:50:34;;;;;;;14.32;8.90;;;6.30;99.90;6.50;99790.00;;;;339988;28;91766;-91
2022/12/02 00:50:45;;;;;;;15.70;9.00;;;6.20;99.90;6.50;99799.00;;;;341724;28;83305;-91
2022/12/02 00:50:57;;;;;;;15.43;8.27;;;6.20;99.90;6.50;99780.00;;;;342551;28;91603;-91
2022/12/02 00:51:09;;;;;;;14.82;8.65;;;6.20;99.90;6.50;99800.00;;;;344464;28;84053;-91
2022/12/02 00:51:21;;;;;;;12.32;8.30;;;6.20;99.90;6.50;99788.00;;;;339889;28;92799;-91
2022/12/02 00:51:34;;;;;;;12.13;7.95;;;6.20;99.90;6.40;99791.00;;;;344307;28;84805;-91
2022/12/02 00:51:46;;;;;;;12.80;7.82;;;6.20;99.90;6.50;99793.00;;;;342711;28;90951;-91
2022/12/02 00:51:58;;;;;;;12.80;7.85;;;6.20;99.90;6.60;99792.00;;;;342936;28;84742;-91
2022/12/02 00:52:10;;;;;;;12.68;7.93;;;6.20;99.90;6.60;99788.00;;;;341295;28;90505;-91
2022/12/02 00:52:24;;;;;;;12.93;7.97;;;6.20;99.90;6.60;99795.00;;;;340319;28;84398;-91
2022/12/02 00:52:36;;;;;;;13.40;8.10;;;6.30;99.90;6.60;99793.00;;;;344132;28;91617;-91
2022/12/02 00:52:48;;;;;;;12.75;8.13;;;6.20;99.90;6.60;99799.00;;;;343052;28;84385;-91
2022/12/02 00:53:00;;;;;;;13.18;8.60;;;6.30;99.90;6.60;99795.00;;;;339730;28;91006;-91
2022/12/02 00:53:12;;;;;;;11.95;8.02;;;6.30;99.90;6.60;99786.00;;;;344170;28;84827;-91
2022/12/02 00:53:23;;;;;;;12.25;8.35;;;6.30;99.90;6.60;99799.00;;;;339954;28;91744;-91
2022/12/02 00:53:35;;;;;;;12.52;8.57;;;6.30;99.90;6.70;99795.00;;;;341460;28;83562;-90
2022/12/02 00:53:47;;;;;;;12.48;8.25;;;6.30;99.90;6.70;99798.00;;;;338728;28;90539;-91
2022/12/02 00:53:59;;;;;;;12.75;8.20;;;6.30;99.90;6.70;99783.00;;;;343023;28;83351;-91
2022/12/02 00:54:11;;;;;;;14.32;8.82;;;6.30;99.90;6.60;99791.00;;;;341234;28;91600;-91
2022/12/02 00:54:23;;;;;;;15.20;9.15;;;6.30;99.90;6.70;99795.00;;;;343041;28;84532;-92
2022/12/02 00:54:35;;;;;;;15.98;9.70;;;6.30;99.90;6.60;99796.00;;;;342730;28;92112;-91
2022/12/02 00:54:47;;;;;;;13.80;8.88;;;6.30;99.90;6.70;99784.00;;;;340343;28;83628;-91
2022/12/02 00:54:59;;;;;;;13.35;8.90;;;6.30;99.90;6.70;99796.00;;;;341258;28;90901;-91
2022/12/02 00:55:11;;;;;;;12.63;8.52;;;6.30;99.90;6.50;99796.00;;;;341798;28;83351;-91
2022/12/02 00:55:23;;;;;;;13.10;8.35;;;6.30;99.90;6.40;99788.00;;;;341269;28;92761;-91
2022/12/02 00:55:34;;;;;;;13.30;7.93;;;6.30;99.90;6.40;99795.00;;;;340354;28;83685;-91
2022/12/02 00:55:46;;;;;;;14.02;8.18;;;6.20;99.90;6.20;99794.00;;;;341279;28;91593;-91
2022/12/02 00:55:58;;;;;;;13.98;8.20;;;6.20;99.90;6.40;99794.00;;;;342742;28;83269;-91
2022/12/02 00:56:10;;;;;;;12.70;7.93;;;6.20;99.90;6.50;99793.00;;;;342598;28;91195;-91
2022/12/02 00:56:22;;;;;;;12.35;7.90;;;6.20;99.90;6.50;99792.00;;;;343110;28;84848;-91
2022/12/02 00:56:34;;;;;;;12.95;8.32;;;6.20;99.90;6.40;99794.00;;;;341301;28;91847;-91
2022/12/02 00:56:46;;;;;;;14.00;8.50;;;6.20;99.90;6.50;99790.00;;;;344380;28;83894;-91
2022/12/02 00:57:00;;;;;;;13.93;9.48;;;6.20;99.90;6.50;99785.00;;;;339858;28;91763;-91
2022/12/02 00:57:11;;;;;;;13.75;9.77;;;6.20;99.90;6.50;99798.00;;;;343089;28;83432;-91
2022/12/02 00:57:23;;;;;;;14.52;9.73;;;6.20;99.90;6.50;99790.00;;;;341294;28;90217;-91
2022/12/02 00:57:36;;;;;;;13.98;9.20;;;6.20;99.90;6.50;99799.00;;;;341710;28;83219;-91
2022/12/02 00:57:47;;;;;;;14.48;9.25;;;6.20;99.90;6.50;99793.00;;;;344031;28;91739;-91
2022/12/02 00:57:59;;;;;;;14.07;8.65;;;6.20;99.90;6.50;99789.00;;;;341329;28;84486;-92
2022/12/02 00:58:11;;;;;;;13.32;8.23;;;6.20;99.90;6.50;99801.00;;;;339885;28;91536;-91
2022/12/02 00:58:23;;;;;;;14.35;9.10;;;6.20;99.90;6.50;99795.00;;;;344465;28;84757;-92
2022/12/02 00:58:35;;;;;;;14.80;9.60;;;6.20;99.90;6.60;99791.00;;;;341320;28;91633;-91
2022/12/02 00:58:47;;;;;;;14.57;9.15;;;6.20;99.90;6.60;99797.00;;;;341583;28;82491;-91
2022/12/02 00:58:59;;;;;;;13.70;8.63;;;6.20;99.90;6.60;99796.00;;;;344055;28;91707;-92
2022/12/02 00:59:11;;;;;;;13.02;8.30;;;6.20;99.90;6.70;99796.00;;;;343015;28;83847;-91
2022/12/02 00:59:23;;;;;;;13.27;8.80;;;6.20;99.90;6.70;99797.00;;;;341005;28;92048;-91
2022/12/02 00:59:35;;;;;;;14.88;9.77;;;6.20;99.90;6.70;99801.00;;;;341723;28;82381;-91
2022/12/02 00:59:47;;;;;;;14.48;9.57;;;6.20;99.90;6.60;99799.00;;;;341383;28;91725;-91
2022/12/02 00:59:58;;;;;;;13.65;8.38;;;6.30;99.90;6.40;99793.00;;;;343062;28;83353;-91
2022/12/02 01:00:11;;;;;;;12.90;7.75;;;6.30;99.90;6.60;99794.00;;;;339916;28;92113;-91
2022/12/02 01:00:23;;;;;;;12.85;8.10;;;6.30;99.90;6.60;99796.00;;;;343016;28;84525;-91
2022/12/02 01:00:34;;;;;;;12.63;8.18;;;6.20;99.90;6.70;99792.00;;;;341363;28;90715;-91
2022/12/02 01:00:46;;;;;;;13.77;8.20;;;6.30;99.90;6.70;99796.00;;;;341608;28;83569;-91
2022/12/02 01:00:58;;;;;;;14.43;8.40;;;6.30;99.90;6.50;99801.00;;;;342568;28;91166;-91
2022/12/02 01:01:10;;;;;;;14.80;8.60;;;6.30;99.90;6.60;99798.00;;;;342631;28;84519;-91
2022/12/02 01:01:22;;;;;;;15.23;9.02;;;6.30;99.90;6.60;99792.00;;;;339737;28;92758;-91
2022/12/02 01:01:35;;;;;;;13.60;8.55;;;6.30;99.90;6.40;99791.00;;;;344464;28;83034;-91
2022/12/02 01:01:47;;;;;;;12.93;8.13;;;6.30;99.90;6.20;99794.00;;;;338662;28;92472;-91
2022/12/02 01:01:59;;;;;;;12.80;7.95;;;6.20;99.90;6.40;99794.00;;;;342993;28;83383;-91
2022/12/02 01:02:11;;;;;;;12.85;7.47;;;6.20;99.90;6.40;99787.00;;;;341224;28;90555;-91
2022/12/02 01:02:23;;;;;;;12.85;7.85;;;6.20;99.90;6.50;99797.00;;;;345751;28;83809;-91
2022/12/02 01:02:35;;;;;;;13.32;8.43;;;6.20;99.90;6.50;99793.00;;;;342680;28;90514;-91
2022/12/02 01:02:47;;;;;;;13.32;8.68;;;6.20;99.90;6.60;99796.00;;;;343021;28;84364;-92
2022/12/02 01:02:59;;;;;;;13.63;8.10;;;6.20;99.90;6.60;99788.00;;;;341244;28;91888;-91